sensor_id;sensor_type;location;lat;lon;timestamp;P1;durP1;ratioP1;P2;durP2;ratioP2
2305;SDS011;1161;51.922;8.896;2024-03-02T00:00:50;25.83;;;15.20;;
2305;SDS011;1161;51.922;8.896;2024-03-02T00:03:19;23.03;;;13.33;;
2305;SDS011;1161;51.922;8.896;2024-03-02T00:05:49;26.30;;;13.10;;
2305;SDS011;1161;51.922;8.896;2024-03-02T00:08:19;29.13;;;14.30;;
2305;SDS011;1161;51.922;8.896;2024-03-02T00:10:49;28.73;;;15.37;;
2305;SDS011;1161;51.922;8.896;2024-03-02T00:13:16;32.60;;;15.83;;
2305;SDS011;1161;51.922;8.896;2024-03-02T00:15:45;28.40;;;17.20;;
2305;SDS011;1161;51.922;8.896;2024-03-02T00:18:13;28.30;;;15.53;;
2305;SDS011;1161;51.922;8.896;2024-03-02T00:20:42;26.90;;;16.23;;
2305;SDS011;1161;51.922;8.896;2024-03-02T00:23:10;34.00;;;15.60;;
2305;SDS011;1161;51.922;8.896;2024-03-02T00:25:40;27.13;;;15.60;;
2305;SDS011;1161;51.922;8.896;2024-03-02T00:28:13;32.13;;;17.63;;
2305;SDS011;1161;51.922;8.896;2024-03-02T00:30:57;37.67;;;18.23;;
2305;SDS011;1161;51.922;8.896;2024-03-02T00:33:30;32.50;;;17.73;;
2305;SDS011;1161;51.922;8.896;2024-03-02T00:35:58;29.90;;;16.20;;
2305;SDS011;1161;51.922;8.896;2024-03-02T00:38:26;32.63;;;18.37;;
2305;SDS011;1161;51.922;8.896;2024-03-02T00:40:54;33.50;;;15.27;;
2305;SDS011;1161;51.922;8.896;2024-03-02T00:46:12;29.80;;;16.00;;
2305;SDS011;1161;51.922;8.896;2024-03-02T00:48:41;27.60;;;16.50;;
2305;SDS011;1161;51.922;8.896;2024-03-02T00:51:15;38.43;;;18.10;;
2305;SDS011;1161;51.922;8.896;2024-03-02T00:53:42;33.47;;;19.10;;
2305;SDS011;1161;51.922;8.896;2024-03-02T00:56:10;41.10;;;17.60;;
2305;SDS011;1161;51.922;8.896;2024-03-02T00:58:37;36.30;;;18.97;;
2305;SDS011;1161;51.922;8.896;2024-03-02T01:01:04;35.57;;;17.90;;
2305;SDS011;1161;51.922;8.896;2024-03-02T01:03:32;43.87;;;18.80;;
2305;SDS011;1161;51.922;8.896;2024-03-02T01:05:59;38.17;;;20.40;;
2305;SDS011;1161;51.922;8.896;2024-03-02T01:08:27;45.80;;;22.37;;
2305;SDS011;1161;51.922;8.896;2024-03-02T01:10:54;45.73;;;24.30;;
2305;SDS011;1161;51.922;8.896;2024-03-02T01:13:21;60.23;;;26.73;;
2305;SDS011;1161;51.922;8.896;2024-03-02T01:15:49;57.87;;;28.30;;
2305;SDS011;1161;51.922;8.896;2024-03-02T01:18:16;44.83;;;24.27;;
2305;SDS011;1161;51.922;8.896;2024-03-02T01:20:43;46.93;;;22.63;;
2305;SDS011;1161;51.922;8.896;2024-03-02T01:23:10;47.97;;;21.90;;
2305;SDS011;1161;51.922;8.896;2024-03-02T01:25:38;40.00;;;20.90;;
2305;SDS011;1161;51.922;8.896;2024-03-02T01:28:05;48.13;;;24.60;;
2305;SDS011;1161;51.922;8.896;2024-03-02T01:30:32;57.50;;;23.20;;
2305;SDS011;1161;51.922;8.896;2024-03-02T01:32:59;40.23;;;21.60;;
2305;SDS011;1161;51.922;8.896;2024-03-02T01:35:26;36.77;;;19.87;;
2305;SDS011;1161;51.922;8.896;2024-03-02T01:37:53;40.73;;;19.40;;
2305;SDS011;1161;51.922;8.896;2024-03-02T01:40:20;35.10;;;19.10;;
2305;SDS011;1161;51.922;8.896;2024-03-02T01:42:48;40.23;;;20.70;;
2305;SDS011;1161;51.922;8.896;2024-03-02T01:45:15;32.40;;;16.47;;
2305;SDS011;1161;51.922;8.896;2024-03-02T01:47:41;33.13;;;17.30;;
2305;SDS011;1161;51.922;8.896;2024-03-02T01:50:07;30.90;;;17.97;;
2305;SDS011;1161;51.922;8.896;2024-03-02T01:52:37;40.47;;;20.40;;
2305;SDS011;1161;51.922;8.896;2024-03-02T01:55:04;38.80;;;20.50;;
2305;SDS011;1161;51.922;8.896;2024-03-02T01:57:32;42.77;;;21.90;;
2305;SDS011;1161;51.922;8.896;2024-03-02T02:00:01;43.60;;;19.50;;
2305;SDS011;1161;51.922;8.896;2024-03-02T02:02:28;37.73;;;20.50;;
2305;SDS011;1161;51.922;8.896;2024-03-02T02:04:55;34.67;;;19.83;;
2305;SDS011;1161;51.922;8.896;2024-03-02T02:07:22;34.33;;;18.07;;
2305;SDS011;1161;51.922;8.896;2024-03-02T02:09:49;31.57;;;18.33;;
2305;SDS011;1161;51.922;8.896;2024-03-02T02:12:16;36.40;;;19.00;;
2305;SDS011;1161;51.922;8.896;2024-03-02T02:14:46;39.57;;;18.73;;
2305;SDS011;1161;51.922;8.896;2024-03-02T02:17:15;37.07;;;18.70;;
2305;SDS011;1161;51.922;8.896;2024-03-02T02:19:42;38.70;;;19.27;;
2305;SDS011;1161;51.922;8.896;2024-03-02T02:22:10;44.63;;;19.87;;
2305;SDS011;1161;51.922;8.896;2024-03-02T02:24:39;42.87;;;22.07;;
2305;SDS011;1161;51.922;8.896;2024-03-02T02:27:06;51.43;;;21.97;;
2305;SDS011;1161;51.922;8.896;2024-03-02T02:29:33;43.40;;;21.77;;
2305;SDS011;1161;51.922;8.896;2024-03-02T02:32:00;37.70;;;20.87;;
2305;SDS011;1161;51.922;8.896;2024-03-02T02:34:27;37.13;;;21.60;;
2305;SDS011;1161;51.922;8.896;2024-03-02T02:36:53;41.97;;;20.83;;
2305;SDS011;1161;51.922;8.896;2024-03-02T02:39:22;40.10;;;21.70;;
2305;SDS011;1161;51.922;8.896;2024-03-02T02:41:49;43.47;;;22.23;;
2305;SDS011;1161;51.922;8.896;2024-03-02T02:44:16;40.20;;;21.30;;
2305;SDS011;1161;51.922;8.896;2024-03-02T02:46:43;36.97;;;19.10;;
2305;SDS011;1161;51.922;8.896;2024-03-02T02:49:10;43.17;;;20.13;;
2305;SDS011;1161;51.922;8.896;2024-03-02T02:51:37;36.27;;;16.83;;
2305;SDS011;1161;51.922;8.896;2024-03-02T02:54:09;32.53;;;16.40;;
2305;SDS011;1161;51.922;8.896;2024-03-02T02:56:38;27.80;;;16.50;;
2305;SDS011;1161;51.922;8.896;2024-03-02T02:59:05;37.83;;;18.20;;
2305;SDS011;1161;51.922;8.896;2024-03-02T03:01:31;33.73;;;16.20;;
2305;SDS011;1161;51.922;8.896;2024-03-02T03:03:58;27.07;;;16.27;;
2305;SDS011;1161;51.922;8.896;2024-03-02T03:06:25;35.13;;;15.10;;
2305;SDS011;1161;51.922;8.896;2024-03-02T03:08:52;30.27;;;16.07;;
2305;SDS011;1161;51.922;8.896;2024-03-02T03:11:19;31.47;;;14.70;;
2305;SDS011;1161;51.922;8.896;2024-03-02T03:13:47;36.53;;;15.33;;
2305;SDS011;1161;51.922;8.896;2024-03-02T03:16:21;34.40;;;16.80;;
2305;SDS011;1161;51.922;8.896;2024-03-02T03:18:48;35.77;;;16.73;;
2305;SDS011;1161;51.922;8.896;2024-03-02T03:21:16;26.90;;;14.10;;
2305;SDS011;1161;51.922;8.896;2024-03-02T03:23:43;32.27;;;15.23;;
2305;SDS011;1161;51.922;8.896;2024-03-02T03:26:10;34.50;;;16.80;;
2305;SDS011;1161;51.922;8.896;2024-03-02T03:28:37;21.77;;;15.00;;
2305;SDS011;1161;51.922;8.896;2024-03-02T03:31:05;29.60;;;15.63;;
2305;SDS011;1161;51.922;8.896;2024-03-02T03:33:32;32.07;;;16.07;;
2305;SDS011;1161;51.922;8.896;2024-03-02T03:35:59;25.03;;;15.87;;
2305;SDS011;1161;51.922;8.896;2024-03-02T03:38:27;30.17;;;16.60;;
2305;SDS011;1161;51.922;8.896;2024-03-02T03:40:54;31.47;;;15.40;;
2305;SDS011;1161;51.922;8.896;2024-03-02T03:43:21;29.43;;;14.40;;
2305;SDS011;1161;51.922;8.896;2024-03-02T03:45:49;28.20;;;15.70;;
2305;SDS011;1161;51.922;8.896;2024-03-02T03:48:17;31.20;;;16.00;;
2305;SDS011;1161;51.922;8.896;2024-03-02T03:50:44;34.20;;;16.23;;
2305;SDS011;1161;51.922;8.896;2024-03-02T03:53:11;29.37;;;17.00;;
2305;SDS011;1161;51.922;8.896;2024-03-02T03:55:40;28.40;;;17.30;;
2305;SDS011;1161;51.922;8.896;2024-03-02T03:58:07;33.53;;;17.17;;
2305;SDS011;1161;51.922;8.896;2024-03-02T04:00:34;46.73;;;18.57;;
2305;SDS011;1161;51.922;8.896;2024-03-02T04:03:01;32.73;;;16.03;;
2305;SDS011;1161;51.922;8.896;2024-03-02T04:05:29;35.67;;;16.30;;
2305;SDS011;1161;51.922;8.896;2024-03-02T04:07:56;29.83;;;14.73;;
2305;SDS011;1161;51.922;8.896;2024-03-02T04:10:22;32.23;;;15.93;;
2305;SDS011;1161;51.922;8.896;2024-03-02T04:12:49;31.63;;;15.90;;
2305;SDS011;1161;51.922;8.896;2024-03-02T04:15:17;29.50;;;13.60;;
2305;SDS011;1161;51.922;8.896;2024-03-02T04:17:45;30.77;;;17.00;;
2305;SDS011;1161;51.922;8.896;2024-03-02T04:20:12;33.97;;;15.80;;
2305;SDS011;1161;51.922;8.896;2024-03-02T04:22:40;25.97;;;16.80;;
2305;SDS011;1161;51.922;8.896;2024-03-02T04:25:07;25.77;;;15.93;;
2305;SDS011;1161;51.922;8.896;2024-03-02T04:27:35;33.37;;;16.67;;
2305;SDS011;1161;51.922;8.896;2024-03-02T04:30:02;39.50;;;18.10;;
2305;SDS011;1161;51.922;8.896;2024-03-02T04:32:31;35.27;;;16.97;;
2305;SDS011;1161;51.922;8.896;2024-03-02T04:34:57;39.73;;;19.63;;
2305;SDS011;1161;51.922;8.896;2024-03-02T04:37:24;36.13;;;18.53;;
2305;SDS011;1161;51.922;8.896;2024-03-02T04:39:52;38.27;;;20.90;;
2305;SDS011;1161;51.922;8.896;2024-03-02T04:42:20;36.83;;;18.30;;
2305;SDS011;1161;51.922;8.896;2024-03-02T04:44:48;35.70;;;19.50;;
2305;SDS011;1161;51.922;8.896;2024-03-02T04:47:17;42.13;;;21.23;;
2305;SDS011;1161;51.922;8.896;2024-03-02T04:49:44;32.90;;;19.27;;
2305;SDS011;1161;51.922;8.896;2024-03-02T04:52:12;34.60;;;19.80;;
2305;SDS011;1161;51.922;8.896;2024-03-02T04:54:40;42.00;;;22.50;;
2305;SDS011;1161;51.922;8.896;2024-03-02T04:57:22;57.53;;;23.40;;
2305;SDS011;1161;51.922;8.896;2024-03-02T04:59:51;60.50;;;25.03;;
2305;SDS011;1161;51.922;8.896;2024-03-02T05:02:19;53.50;;;22.43;;
2305;SDS011;1161;51.922;8.896;2024-03-02T05:04:47;53.10;;;23.43;;
2305;SDS011;1161;51.922;8.896;2024-03-02T05:07:18;42.70;;;20.80;;
2305;SDS011;1161;51.922;8.896;2024-03-02T05:09:48;38.60;;;19.90;;
2305;SDS011;1161;51.922;8.896;2024-03-02T05:12:18;36.73;;;20.13;;
2305;SDS011;1161;51.922;8.896;2024-03-02T05:15:22;48.00;;;21.93;;
2305;SDS011;1161;51.922;8.896;2024-03-02T05:17:48;41.87;;;20.47;;
2305;SDS011;1161;51.922;8.896;2024-03-02T05:20:15;46.37;;;18.80;;
2305;SDS011;1161;51.922;8.896;2024-03-02T05:22:42;45.27;;;20.90;;
2305;SDS011;1161;51.922;8.896;2024-03-02T05:25:09;36.03;;;19.37;;
2305;SDS011;1161;51.922;8.896;2024-03-02T05:27:37;36.23;;;18.40;;
2305;SDS011;1161;51.922;8.896;2024-03-02T05:30:04;41.63;;;20.90;;
2305;SDS011;1161;51.922;8.896;2024-03-02T05:32:34;42.60;;;20.00;;
2305;SDS011;1161;51.922;8.896;2024-03-02T05:35:00;33.93;;;18.40;;
2305;SDS011;1161;51.922;8.896;2024-03-02T05:37:28;41.60;;;18.70;;
2305;SDS011;1161;51.922;8.896;2024-03-02T05:39:55;38.33;;;20.47;;
2305;SDS011;1161;51.922;8.896;2024-03-02T05:42:22;39.87;;;19.40;;
2305;SDS011;1161;51.922;8.896;2024-03-02T05:44:48;39.37;;;19.27;;
2305;SDS011;1161;51.922;8.896;2024-03-02T05:47:15;38.97;;;17.87;;
2305;SDS011;1161;51.922;8.896;2024-03-02T05:49:44;37.67;;;17.77;;
2305;SDS011;1161;51.922;8.896;2024-03-02T05:52:10;38.63;;;18.93;;
2305;SDS011;1161;51.922;8.896;2024-03-02T05:54:38;40.30;;;21.73;;
2305;SDS011;1161;51.922;8.896;2024-03-02T05:57:05;41.73;;;19.70;;
2305;SDS011;1161;51.922;8.896;2024-03-02T05:59:52;54.03;;;22.20;;
2305;SDS011;1161;51.922;8.896;2024-03-02T06:02:19;40.57;;;20.50;;
2305;SDS011;1161;51.922;8.896;2024-03-02T06:04:47;39.83;;;21.37;;
2305;SDS011;1161;51.922;8.896;2024-03-02T06:07:14;52.13;;;24.10;;
2305;SDS011;1161;51.922;8.896;2024-03-02T06:09:41;48.00;;;21.63;;
2305;SDS011;1161;51.922;8.896;2024-03-02T06:12:07;44.07;;;19.80;;
2305;SDS011;1161;51.922;8.896;2024-03-02T06:14:34;51.07;;;22.60;;
2305;SDS011;1161;51.922;8.896;2024-03-02T06:17:01;61.63;;;25.90;;
2305;SDS011;1161;51.922;8.896;2024-03-02T06:19:28;53.73;;;24.50;;
2305;SDS011;1161;51.922;8.896;2024-03-02T06:21:56;46.67;;;25.20;;
2305;SDS011;1161;51.922;8.896;2024-03-02T06:24:23;53.57;;;25.87;;
2305;SDS011;1161;51.922;8.896;2024-03-02T06:26:51;70.83;;;27.73;;
2305;SDS011;1161;51.922;8.896;2024-03-02T06:29:19;65.30;;;26.57;;
2305;SDS011;1161;51.922;8.896;2024-03-02T06:31:47;71.97;;;28.93;;
2305;SDS011;1161;51.922;8.896;2024-03-02T06:34:14;67.27;;;30.07;;
2305;SDS011;1161;51.922;8.896;2024-03-02T06:36:41;66.33;;;27.00;;
2305;SDS011;1161;51.922;8.896;2024-03-02T06:39:09;67.37;;;28.40;;
2305;SDS011;1161;51.922;8.896;2024-03-02T06:41:37;77.77;;;31.50;;
2305;SDS011;1161;51.922;8.896;2024-03-02T06:44:04;63.70;;;28.43;;
2305;SDS011;1161;51.922;8.896;2024-03-02T06:46:32;65.17;;;32.83;;
2305;SDS011;1161;51.922;8.896;2024-03-02T06:48:58;64.30;;;29.20;;
2305;SDS011;1161;51.922;8.896;2024-03-02T06:51:27;68.43;;;28.10;;
2305;SDS011;1161;51.922;8.896;2024-03-02T06:53:54;67.00;;;28.80;;
2305;SDS011;1161;51.922;8.896;2024-03-02T06:56:22;68.03;;;32.67;;
2305;SDS011;1161;51.922;8.896;2024-03-02T06:58:49;67.23;;;29.83;;
2305;SDS011;1161;51.922;8.896;2024-03-02T07:01:16;69.17;;;34.77;;
2305;SDS011;1161;51.922;8.896;2024-03-02T07:03:42;74.40;;;33.93;;
2305;SDS011;1161;51.922;8.896;2024-03-02T07:06:09;78.50;;;36.00;;
2305;SDS011;1161;51.922;8.896;2024-03-02T07:08:36;65.23;;;31.13;;
2305;SDS011;1161;51.922;8.896;2024-03-02T07:11:03;76.13;;;31.10;;
2305;SDS011;1161;51.922;8.896;2024-03-02T07:13:31;65.90;;;31.67;;
2305;SDS011;1161;51.922;8.896;2024-03-02T07:15:58;70.97;;;34.17;;
2305;SDS011;1161;51.922;8.896;2024-03-02T07:18:53;73.57;;;31.93;;
2305;SDS011;1161;51.922;8.896;2024-03-02T07:21:22;57.93;;;28.03;;
2305;SDS011;1161;51.922;8.896;2024-03-02T07:23:49;70.97;;;32.23;;
2305;SDS011;1161;51.922;8.896;2024-03-02T07:26:16;68.90;;;31.37;;
2305;SDS011;1161;51.922;8.896;2024-03-02T07:28:45;60.30;;;29.50;;
2305;SDS011;1161;51.922;8.896;2024-03-02T07:31:13;49.90;;;26.73;;
2305;SDS011;1161;51.922;8.896;2024-03-02T07:33:39;54.23;;;27.73;;
2305;SDS011;1161;51.922;8.896;2024-03-02T07:36:06;64.87;;;27.20;;
2305;SDS011;1161;51.922;8.896;2024-03-02T07:38:34;67.07;;;27.97;;
2305;SDS011;1161;51.922;8.896;2024-03-02T07:41:00;64.60;;;29.03;;
2305;SDS011;1161;51.922;8.896;2024-03-02T07:43:28;62.97;;;28.13;;
2305;SDS011;1161;51.922;8.896;2024-03-02T07:45:56;63.40;;;27.73;;
2305;SDS011;1161;51.922;8.896;2024-03-02T07:48:23;60.30;;;27.03;;
2305;SDS011;1161;51.922;8.896;2024-03-02T07:50:50;56.17;;;27.37;;
2305;SDS011;1161;51.922;8.896;2024-03-02T07:53:17;50.70;;;25.27;;
2305;SDS011;1161;51.922;8.896;2024-03-02T07:55:44;68.20;;;29.53;;
2305;SDS011;1161;51.922;8.896;2024-03-02T07:58:11;60.63;;;29.07;;
2305;SDS011;1161;51.922;8.896;2024-03-02T08:00:38;57.63;;;26.23;;
2305;SDS011;1161;51.922;8.896;2024-03-02T08:03:06;67.83;;;27.77;;
2305;SDS011;1161;51.922;8.896;2024-03-02T08:05:36;58.03;;;28.93;;
2305;SDS011;1161;51.922;8.896;2024-03-02T08:08:04;70.33;;;28.83;;
2305;SDS011;1161;51.922;8.896;2024-03-02T08:10:31;62.93;;;26.13;;
2305;SDS011;1161;51.922;8.896;2024-03-02T08:12:59;52.87;;;27.87;;
2305;SDS011;1161;51.922;8.896;2024-03-02T08:15:26;45.13;;;24.30;;
2305;SDS011;1161;51.922;8.896;2024-03-02T08:17:53;51.70;;;23.93;;
2305;SDS011;1161;51.922;8.896;2024-03-02T08:20:21;62.67;;;25.00;;
2305;SDS011;1161;51.922;8.896;2024-03-02T08:22:48;61.40;;;27.17;;
2305;SDS011;1161;51.922;8.896;2024-03-02T08:25:14;46.47;;;22.83;;
2305;SDS011;1161;51.922;8.896;2024-03-02T08:27:42;40.37;;;22.67;;
2305;SDS011;1161;51.922;8.896;2024-03-02T08:30:09;41.23;;;21.97;;
2305;SDS011;1161;51.922;8.896;2024-03-02T08:32:37;37.60;;;22.40;;
2305;SDS011;1161;51.922;8.896;2024-03-02T08:35:04;50.03;;;24.80;;
2305;SDS011;1161;51.922;8.896;2024-03-02T08:37:33;52.03;;;20.33;;
2305;SDS011;1161;51.922;8.896;2024-03-02T08:40:00;39.53;;;20.63;;
2305;SDS011;1161;51.922;8.896;2024-03-02T08:42:29;48.57;;;20.93;;
2305;SDS011;1161;51.922;8.896;2024-03-02T08:44:56;49.63;;;22.77;;
2305;SDS011;1161;51.922;8.896;2024-03-02T08:47:26;47.80;;;18.87;;
2305;SDS011;1161;51.922;8.896;2024-03-02T08:49:53;41.47;;;20.40;;
2305;SDS011;1161;51.922;8.896;2024-03-02T08:52:20;38.97;;;21.30;;
2305;SDS011;1161;51.922;8.896;2024-03-02T08:54:48;40.87;;;20.80;;
2305;SDS011;1161;51.922;8.896;2024-03-02T08:57:15;42.67;;;21.03;;
2305;SDS011;1161;51.922;8.896;2024-03-02T08:59:42;47.53;;;20.43;;
2305;SDS011;1161;51.922;8.896;2024-03-02T09:02:09;43.47;;;19.00;;
2305;SDS011;1161;51.922;8.896;2024-03-02T09:04:36;44.80;;;22.70;;
2305;SDS011;1161;51.922;8.896;2024-03-02T09:07:03;38.70;;;19.33;;
2305;SDS011;1161;51.922;8.896;2024-03-02T09:09:30;40.43;;;18.10;;
2305;SDS011;1161;51.922;8.896;2024-03-02T09:11:59;35.23;;;18.20;;
2305;SDS011;1161;51.922;8.896;2024-03-02T09:14:26;46.80;;;19.30;;
2305;SDS011;1161;51.922;8.896;2024-03-02T09:16:53;39.67;;;18.93;;
2305;SDS011;1161;51.922;8.896;2024-03-02T09:19:20;38.30;;;16.80;;
2305;SDS011;1161;51.922;8.896;2024-03-02T09:21:46;33.43;;;15.93;;
2305;SDS011;1161;51.922;8.896;2024-03-02T09:24:13;25.90;;;15.40;;
2305;SDS011;1161;51.922;8.896;2024-03-02T09:26:40;27.03;;;14.80;;
2305;SDS011;1161;51.922;8.896;2024-03-02T09:29:08;28.40;;;15.30;;
2305;SDS011;1161;51.922;8.896;2024-03-02T09:31:38;31.57;;;15.70;;
2305;SDS011;1161;51.922;8.896;2024-03-02T09:34:05;21.80;;;13.23;;
2305;SDS011;1161;51.922;8.896;2024-03-02T09:36:32;29.30;;;12.53;;
2305;SDS011;1161;51.922;8.896;2024-03-02T09:38:59;26.27;;;12.50;;
2305;SDS011;1161;51.922;8.896;2024-03-02T09:41:26;36.40;;;14.27;;
2305;SDS011;1161;51.922;8.896;2024-03-02T09:43:52;41.30;;;14.10;;
2305;SDS011;1161;51.922;8.896;2024-03-02T09:46:21;30.53;;;15.10;;
2305;SDS011;1161;51.922;8.896;2024-03-02T09:48:48;26.50;;;13.73;;
2305;SDS011;1161;51.922;8.896;2024-03-02T09:51:15;28.60;;;15.37;;
2305;SDS011;1161;51.922;8.896;2024-03-02T09:53:44;27.73;;;14.90;;
2305;SDS011;1161;51.922;8.896;2024-03-02T09:56:12;30.00;;;15.30;;
2305;SDS011;1161;51.922;8.896;2024-03-02T09:58:41;28.27;;;13.77;;
2305;SDS011;1161;51.922;8.896;2024-03-02T10:01:09;25.13;;;13.80;;
2305;SDS011;1161;51.922;8.896;2024-03-02T10:03:38;19.73;;;12.43;;
2305;SDS011;1161;51.922;8.896;2024-03-02T10:06:18;25.60;;;14.07;;
2305;SDS011;1161;51.922;8.896;2024-03-02T10:08:45;24.57;;;13.20;;
2305;SDS011;1161;51.922;8.896;2024-03-02T10:11:23;20.83;;;12.30;;
2305;SDS011;1161;51.922;8.896;2024-03-02T10:14:03;28.27;;;14.90;;
2305;SDS011;1161;51.922;8.896;2024-03-02T10:16:33;17.87;;;11.83;;
2305;SDS011;1161;51.922;8.896;2024-03-02T10:19:14;21.13;;;11.00;;
2305;SDS011;1161;51.922;8.896;2024-03-02T10:21:42;24.50;;;12.47;;
2305;SDS011;1161;51.922;8.896;2024-03-02T10:24:08;25.10;;;12.57;;
2305;SDS011;1161;51.922;8.896;2024-03-02T10:26:35;29.17;;;14.83;;
2305;SDS011;1161;51.922;8.896;2024-03-02T10:29:02;26.13;;;13.13;;
2305;SDS011;1161;51.922;8.896;2024-03-02T10:31:29;26.67;;;13.77;;
2305;SDS011;1161;51.922;8.896;2024-03-02T10:33:57;25.07;;;11.37;;
2305;SDS011;1161;51.922;8.896;2024-03-02T10:36:26;28.07;;;12.00;;
2305;SDS011;1161;51.922;8.896;2024-03-02T10:38:53;20.53;;;11.77;;
2305;SDS011;1161;51.922;8.896;2024-03-02T10:41:21;20.00;;;11.17;;
2305;SDS011;1161;51.922;8.896;2024-03-02T10:43:50;21.23;;;10.63;;
2305;SDS011;1161;51.922;8.896;2024-03-02T10:46:21;20.73;;;10.30;;
2305;SDS011;1161;51.922;8.896;2024-03-02T10:48:49;18.77;;;10.93;;
2305;SDS011;1161;51.922;8.896;2024-03-02T10:51:16;13.37;;;8.60;;
2305;SDS011;1161;51.922;8.896;2024-03-02T10:53:44;19.87;;;10.13;;
2305;SDS011;1161;51.922;8.896;2024-03-02T10:56:11;20.93;;;10.73;;
2305;SDS011;1161;51.922;8.896;2024-03-02T10:58:39;17.43;;;10.70;;
2305;SDS011;1161;51.922;8.896;2024-03-02T11:01:06;15.43;;;6.80;;
2305;SDS011;1161;51.922;8.896;2024-03-02T11:03:35;13.93;;;7.50;;
2305;SDS011;1161;51.922;8.896;2024-03-02T11:06:04;9.47;;;5.83;;
2305;SDS011;1161;51.922;8.896;2024-03-02T11:08:34;14.77;;;7.77;;
2305;SDS011;1161;51.922;8.896;2024-03-02T11:11:06;11.43;;;7.37;;
2305;SDS011;1161;51.922;8.896;2024-03-02T11:13:34;11.47;;;7.27;;
2305;SDS011;1161;51.922;8.896;2024-03-02T11:16:03;8.63;;;5.77;;
2305;SDS011;1161;51.922;8.896;2024-03-02T11:18:32;12.93;;;6.60;;
2305;SDS011;1161;51.922;8.896;2024-03-02T11:20:59;6.47;;;5.87;;
2305;SDS011;1161;51.922;8.896;2024-03-02T11:23:31;12.00;;;8.07;;
2305;SDS011;1161;51.922;8.896;2024-03-02T11:28:44;12.40;;;6.10;;
2305;SDS011;1161;51.922;8.896;2024-03-02T11:31:11;11.93;;;8.43;;
2305;SDS011;1161;51.922;8.896;2024-03-02T11:33:38;25.93;;;11.30;;
2305;SDS011;1161;51.922;8.896;2024-03-02T11:36:06;17.13;;;9.90;;
2305;SDS011;1161;51.922;8.896;2024-03-02T11:38:33;12.93;;;8.87;;
2305;SDS011;1161;51.922;8.896;2024-03-02T11:41:01;18.87;;;9.63;;
2305;SDS011;1161;51.922;8.896;2024-03-02T11:43:31;13.47;;;6.97;;
2305;SDS011;1161;51.922;8.896;2024-03-02T11:45:59;11.47;;;8.17;;
2305;SDS011;1161;51.922;8.896;2024-03-02T11:48:26;13.13;;;7.90;;
2305;SDS011;1161;51.922;8.896;2024-03-02T11:50:53;10.90;;;7.77;;
2305;SDS011;1161;51.922;8.896;2024-03-02T11:53:24;22.00;;;8.63;;
2305;SDS011;1161;51.922;8.896;2024-03-02T11:55:55;11.97;;;6.77;;
2305;SDS011;1161;51.922;8.896;2024-03-02T11:58:22;9.73;;;6.30;;
2305;SDS011;1161;51.922;8.896;2024-03-02T12:00:51;12.63;;;7.00;;
2305;SDS011;1161;51.922;8.896;2024-03-02T12:03:20;9.63;;;5.73;;
2305;SDS011;1161;51.922;8.896;2024-03-02T12:05:48;8.20;;;5.70;;
2305;SDS011;1161;51.922;8.896;2024-03-02T12:08:16;13.67;;;7.40;;
2305;SDS011;1161;51.922;8.896;2024-03-02T12:10:43;12.30;;;7.40;;
2305;SDS011;1161;51.922;8.896;2024-03-02T12:13:09;8.20;;;5.80;;
2305;SDS011;1161;51.922;8.896;2024-03-02T12:15:38;7.17;;;4.90;;
2305;SDS011;1161;51.922;8.896;2024-03-02T12:18:07;8.20;;;5.77;;
2305;SDS011;1161;51.922;8.896;2024-03-02T12:20:33;6.03;;;4.80;;
2305;SDS011;1161;51.922;8.896;2024-03-02T12:23:01;6.90;;;5.50;;
2305;SDS011;1161;51.922;8.896;2024-03-02T12:25:29;7.33;;;4.90;;
2305;SDS011;1161;51.922;8.896;2024-03-02T12:27:57;5.77;;;4.73;;
2305;SDS011;1161;51.922;8.896;2024-03-02T12:30:26;5.00;;;4.60;;
2305;SDS011;1161;51.922;8.896;2024-03-02T12:32:53;5.80;;;4.67;;
2305;SDS011;1161;51.922;8.896;2024-03-02T12:35:22;6.60;;;4.83;;
2305;SDS011;1161;51.922;8.896;2024-03-02T12:37:51;8.23;;;4.77;;
2305;SDS011;1161;51.922;8.896;2024-03-02T12:40:19;4.93;;;3.97;;
2305;SDS011;1161;51.922;8.896;2024-03-02T12:42:48;11.33;;;5.47;;
2305;SDS011;1161;51.922;8.896;2024-03-02T12:45:15;9.30;;;4.40;;
2305;SDS011;1161;51.922;8.896;2024-03-02T12:47:49;5.10;;;3.70;;
2305;SDS011;1161;51.922;8.896;2024-03-02T12:50:16;6.43;;;4.60;;
2305;SDS011;1161;51.922;8.896;2024-03-02T12:52:51;5.90;;;4.70;;
2305;SDS011;1161;51.922;8.896;2024-03-02T12:55:19;6.53;;;4.40;;
2305;SDS011;1161;51.922;8.896;2024-03-02T12:57:46;4.57;;;4.20;;
2305;SDS011;1161;51.922;8.896;2024-03-02T13:00:13;5.47;;;4.97;;
2305;SDS011;1161;51.922;8.896;2024-03-02T13:02:40;4.63;;;4.20;;
2305;SDS011;1161;51.922;8.896;2024-03-02T13:05:08;10.40;;;5.47;;
2305;SDS011;1161;51.922;8.896;2024-03-02T13:07:36;10.53;;;4.33;;
2305;SDS011;1161;51.922;8.896;2024-03-02T13:10:05;6.03;;;4.90;;
2305;SDS011;1161;51.922;8.896;2024-03-02T13:12:33;5.13;;;4.00;;
2305;SDS011;1161;51.922;8.896;2024-03-02T13:14:59;15.40;;;3.20;;
2305;SDS011;1161;51.922;8.896;2024-03-02T13:17:27;4.30;;;3.30;;
2305;SDS011;1161;51.922;8.896;2024-03-02T13:19:55;2.67;;;2.40;;
2305;SDS011;1161;51.922;8.896;2024-03-02T13:22:22;4.47;;;3.70;;
2305;SDS011;1161;51.922;8.896;2024-03-02T13:24:49;3.50;;;2.73;;
2305;SDS011;1161;51.922;8.896;2024-03-02T13:27:17;7.60;;;3.80;;
2305;SDS011;1161;51.922;8.896;2024-03-02T13:29:45;5.23;;;3.80;;
2305;SDS011;1161;51.922;8.896;2024-03-02T13:32:13;5.97;;;2.70;;
2305;SDS011;1161;51.922;8.896;2024-03-02T13:34:40;3.17;;;2.87;;
2305;SDS011;1161;51.922;8.896;2024-03-02T13:37:07;5.10;;;2.27;;
2305;SDS011;1161;51.922;8.896;2024-03-02T13:39:34;1.60;;;1.50;;
2305;SDS011;1161;51.922;8.896;2024-03-02T13:42:06;2.27;;;2.07;;
2305;SDS011;1161;51.922;8.896;2024-03-02T13:44:35;2.10;;;2.00;;
2305;SDS011;1161;51.922;8.896;2024-03-02T13:47:02;2.27;;;2.17;;
2305;SDS011;1161;51.922;8.896;2024-03-02T13:49:30;3.00;;;2.70;;
2305;SDS011;1161;51.922;8.896;2024-03-02T13:52:02;2.33;;;1.90;;
2305;SDS011;1161;51.922;8.896;2024-03-02T13:54:38;2.37;;;2.17;;
2305;SDS011;1161;51.922;8.896;2024-03-02T13:57:05;6.57;;;5.00;;
2305;SDS011;1161;51.922;8.896;2024-03-02T13:59:32;4.90;;;3.90;;
2305;SDS011;1161;51.922;8.896;2024-03-02T14:02:01;9.57;;;7.07;;
2305;SDS011;1161;51.922;8.896;2024-03-02T14:04:29;4.87;;;4.47;;
2305;SDS011;1161;51.922;8.896;2024-03-02T14:06:57;7.70;;;5.27;;
2305;SDS011;1161;51.922;8.896;2024-03-02T14:09:24;5.83;;;5.27;;
2305;SDS011;1161;51.922;8.896;2024-03-02T14:11:51;13.30;;;5.43;;
2305;SDS011;1161;51.922;8.896;2024-03-02T14:14:18;6.13;;;4.90;;
2305;SDS011;1161;51.922;8.896;2024-03-02T14:16:45;9.60;;;4.80;;
2305;SDS011;1161;51.922;8.896;2024-03-02T14:19:13;10.87;;;5.23;;
2305;SDS011;1161;51.922;8.896;2024-03-02T14:21:40;6.20;;;4.90;;
2305;SDS011;1161;51.922;8.896;2024-03-02T14:24:07;6.63;;;4.60;;
2305;SDS011;1161;51.922;8.896;2024-03-02T14:26:34;15.83;;;4.87;;
2305;SDS011;1161;51.922;8.896;2024-03-02T14:29:01;8.07;;;4.97;;
2305;SDS011;1161;51.922;8.896;2024-03-02T14:31:28;6.93;;;3.73;;
2305;SDS011;1161;51.922;8.896;2024-03-02T14:33:56;6.00;;;4.43;;
2305;SDS011;1161;51.922;8.896;2024-03-02T14:36:24;5.70;;;3.90;;
2305;SDS011;1161;51.922;8.896;2024-03-02T14:38:52;9.03;;;3.90;;
2305;SDS011;1161;51.922;8.896;2024-03-02T14:41:20;6.63;;;5.07;;
2305;SDS011;1161;51.922;8.896;2024-03-02T14:43:46;8.80;;;5.00;;
2305;SDS011;1161;51.922;8.896;2024-03-02T14:46:14;4.20;;;3.77;;
2305;SDS011;1161;51.922;8.896;2024-03-02T14:48:42;5.67;;;4.67;;
2305;SDS011;1161;51.922;8.896;2024-03-02T14:51:10;10.43;;;4.53;;
2305;SDS011;1161;51.922;8.896;2024-03-02T14:53:38;6.73;;;4.90;;
2305;SDS011;1161;51.922;8.896;2024-03-02T14:56:05;6.73;;;4.50;;
2305;SDS011;1161;51.922;8.896;2024-03-02T14:58:32;5.90;;;4.40;;
2305;SDS011;1161;51.922;8.896;2024-03-02T15:01:00;9.57;;;5.10;;
2305;SDS011;1161;51.922;8.896;2024-03-02T15:03:27;7.67;;;5.07;;